Flight Track Log - Related Links

Times and Time Zones

All times are in EDT time to prevent confusion due to time zone crossing. See the AWI3725 flight status page for this flight to view local times or setup timezone preferences in your user account.

Time Position Orientation Groundspeed Altitude Reporting Facility
EDT Latitude Longitude Course Direction KTS MPH feet Rate Location/Type
Tue 01:18:05 PM 44.8469 -68.8942 226° Southwest 178 205 3,400  Level Boston Center
Tue 01:19:06 PM 44.8592 -68.9744 282° West 229 264 6,200 2,459 Climbing Boston Center
Tue 01:20:07 PM 44.8075 -69.0336 219° Southwest 235 270 8,400 2,098 Climbing Boston Center
Tue 01:21:09 PM 44.7456 -69.1064 220° Southwest 274 315 10,500 2,488 Climbing Boston Center
Tue 01:22:10 PM 44.6800 -69.1836 220° Southwest 297 342 13,500 2,607 Climbing Boston Center
Tue 01:23:00 PM 44.3932 -69.3693 226° Southwest  Level FlightAware Approximate
Tue 01:23:11 PM 44.6125 -69.2608 219° Southwest 307 353 15,800  Level Boston Center
Tue 01:24:13 PM 44.5425 -69.3428 220° Southwest 319 367 18,100 1,854 Climbing Boston Center
Tue 01:25:14 PM 44.4717 -69.4250 220° Southwest 323 372 19,600 1,574 Climbing Boston Center
Tue 01:26:15 PM 44.3997 -69.5097 220° Southwest 331 381 21,300 1,463 Climbing Boston Center
Tue 01:27:17 PM 44.3219 -69.5969 219° Southwest 354 407 22,600 1,268 Climbing Boston Center
Tue 01:28:18 PM 44.2433 -69.6872 219° Southwest 362 417 23,900 1,230 Climbing Boston Center
Tue 01:29:19 PM 44.1631 -69.7811 220° Southwest 371 427 25,100 1,033 Climbing Boston Center
Tue 01:30:20 PM 44.0803 -69.8758 219° Southwest 379 436 26,000 1,122 Climbing Boston Center
Tue 01:31:22 PM 43.9775 -69.9931 219° Southwest 391 450 27,400 1,122 Climbing Boston Center
Tue 01:32:23 PM 43.8911 -70.0897 219° Southwest 394 453 28,300 885 Climbing Boston Center
Tue 01:33:24 PM 43.8047 -70.1914 220° Southwest 400 460 29,200 829 Climbing Boston Center
Tue 01:34:26 PM 43.7175 -70.2872 218° Southwest 400 460 30,000 390 Climbing Boston Center
Tue 01:35:27 PM 43.6308 -70.3833 219° Southwest 399 459 30,000  Level Boston Center
Tue 01:36:28 PM 43.5469 -70.4783 219° Southwest 394 453 30,000  Level Boston Center
Tue 01:37:30 PM 43.4611 -70.5744 219° Southwest 393 452 30,000  Level Boston Center
Tue 01:38:31 PM 43.3614 -70.6561 211° Southwest 406 467 30,000  Level Boston Center
Tue 01:39:32 PM 43.2575 -70.7211 205° Southwest 408 470 30,000  Level Boston Center
Tue 01:40:33 PM 43.1536 -70.7897 206° Southwest 410 472 30,000  Level Boston Center
Tue 01:41:35 PM 43.0475 -70.8517 203° Southwest 413 475 30,000  Level Boston Center
Tue 01:42:36 PM 42.9400 -70.9019 199° South 415 478 30,000  Level Boston Center
Tue 01:43:37 PM 42.8311 -70.9556 200° South 416 479 30,000  Level Boston Center
Tue 01:44:38 PM 42.7042 -71.0169 200° South 408 470 30,000  Level Boston Center
Tue 01:45:40 PM 42.5997 -71.0683 200° South 402 463 30,000  Level Boston Center
Tue 01:46:41 PM 42.4975 -71.1181 200° South 396 456 30,000  Level Boston Center
Tue 01:47:42 PM 42.4058 -71.1869 209° Southwest 381 438 30,000  Level Boston Center
Tue 01:48:43 PM 42.3525 -71.3017 238° Southwest 364 419 30,000  Level Boston Center
Tue 01:49:45 PM 42.2978 -71.4225 239° Southwest 363 418 30,000  Level Boston Center
Tue 01:50:46 PM 42.2458 -71.5369 239° Southwest 361 415 30,000  Level Boston Center
Tue 01:51:47 PM 42.1931 -71.6514 238° Southwest 361 415 30,000  Level Boston Center
Tue 01:52:48 PM 42.1403 -71.7636 238° Southwest 359 413 30,000  Level Boston Center
Tue 01:53:50 PM 42.0886 -71.8769 238° Southwest 357 411 30,000  Level Boston Center
Tue 01:54:51 PM 42.0364 -71.9908 238° Southwest 357 411 30,000  Level Boston Center
Tue 01:55:52 PM 41.9731 -72.1269 238° Southwest 357 411 30,000  Level Boston Center
Tue 01:56:53 PM 41.9203 -72.2411 238° Southwest 357 411 30,000  Level Boston Center
Tue 01:57:54 PM 41.8667 -72.3561 238° Southwest 358 412 30,000  Level Boston Center
Tue 01:58:56 PM 41.8122 -72.4697 237° Southwest 360 414 30,000  Level Boston Center
Tue 01:59:57 PM 41.7592 -72.5844 238° Southwest 360 414 30,000  Level Boston Center
Tue 02:00:58 PM 41.7050 -72.6989 238° Southwest 360 414 30,000  Level Boston Center
Tue 02:01:59 PM 41.6503 -72.8122 237° Southwest 361 415 30,000  Level Boston Center
Tue 02:03:00 PM 41.5975 -72.9236 238° Southwest 359 413 30,000  Level Boston Center
Tue 02:04:02 PM 41.5436 -73.0372 238° Southwest 359 413 30,000  Level Boston Center
Tue 02:05:03 PM 41.4867 -73.1567 238° Southwest 360 414 30,000  Level Boston Center
Tue 02:06:04 PM 41.4328 -73.2675 237° Southwest 360 414 30,000  Level Boston Center
Tue 02:07:05 PM 41.3792 -73.3781 237° Southwest 360 414 30,000  Level Boston Center
Tue 02:08:06 PM 41.3256 -73.4897 237° Southwest 360 414 30,000  Level Boston Center
Tue 02:09:08 PM 41.2703 -73.5992 236° Southwest 359 413 30,000  Level Boston Center
Tue 02:10:09 PM 41.1964 -73.7233 232° Southwest 359 413 30,000  Level Boston Center
Tue 02:11:10 PM 41.1353 -73.8269 232° Southwest 359 413 30,000  Level Boston Center
Tue 02:12:11 PM 41.0733 -73.9300 231° Southwest 359 413 30,000 -212 Level Boston Center
Tue 02:13:03 PM 41.0233 -74.0164 233° Southwest 365 420 29,600 -750 Descending New York Center
Tue 02:14:03 PM 40.9600 -74.1233 232° Southwest 365 420 28,600 -800 Descending New York Center
Tue 02:15:03 PM 40.8856 -74.2431 231° Southwest 376 433 28,000 -300 Descending New York Center
Tue 02:16:03 PM 40.8156 -74.3575 231° Southwest 394 453 28,000  Level New York Center
Tue 02:17:03 PM 40.7453 -74.4714 231° Southwest 394 453 28,000  Level New York Center
Tue 02:18:03 PM 40.6792 -74.5856 233° Southwest 399 459 28,000 -150 Level New York Center
Tue 02:19:03 PM 40.6175 -74.6889 232° Southwest 405 466 27,700 -900 Descending New York Center
Tue 02:20:03 PM 40.5450 -74.7939 228° Southwest 405 466 26,200 -1,488 Descending New York Center
Tue 02:21:04 PM 40.4750 -74.8961 228° Southwest 393 452 24,700 -1,500 Descending New York Center
Tue 02:22:03 PM 40.4069 -74.9931 227° Southwest 373 429 23,200 -1,513 Descending New York Center
Tue 02:23:03 PM 40.3408 -75.0869 227° Southwest 363 418 21,700 -1,500 Descending New York Center
Tue 02:24:03 PM 40.2750 -75.1808 227° Southwest 363 418 20,200 -850 Descending New York Center
Tue 02:25:03 PM 40.2089 -75.2717 226° Southwest 358 412 20,000 -100 Descending New York Center
Tue 02:26:03 PM 40.1428 -75.3706 229° Southwest 358 412 20,000  Level New York Center
Tue 02:27:03 PM 40.0761 -75.4747 230° Southwest 368 423 20,000  Level New York Center
Tue 02:28:03 PM 40.0072 -75.5758 228° Southwest 375 432 20,000  Level New York Center
Tue 02:29:03 PM 39.9425 -75.6797 231° Southwest 375 432 20,000  Level New York Center
Tue 02:30:03 PM 39.8739 -75.7778 228° Southwest 380 437 20,000  Level New York Center
Tue 02:31:03 PM 39.8089 -75.8811 231° Southwest 375 432 20,000 -700 Level New York Center
Tue 02:32:03 PM 39.7422 -75.9761 228° Southwest 365 420 18,600 -1,300 Descending New York Center
Tue 02:33:03 PM 39.6819 -76.0661 229° Southwest 345 397 17,400 -1,400 Descending New York Center
Tue 02:34:03 PM 39.6169 -76.1636 229° Southwest 339 390 15,800 -1,500 Descending New York Center
Tue 02:35:03 PM 39.5719 -76.2356 231° Southwest 316 364 14,400 -1,267 Descending New York Center
Tue 02:37:03 PM 39.4667 -76.4000 230° Southwest 293 337 12,000 -1,029 Descending Potomac TRACON
Tue 02:37:58 PM 39.4000 -76.4667 218° Southwest 291 335 11,400 -850 Descending Potomac TRACON
Tue 02:39:03 PM 39.3333 -76.5333 218° Southwest 293 337 10,300 -700 Descending Potomac TRACON
Tue 02:39:58 PM 39.2667 -76.5833 210° Southwest 279 321 10,000 -157 Descending Potomac TRACON
Tue 02:40:58 PM 39.2167 -76.6333 218° Southwest 248 285 10,000  Level Potomac TRACON
Tue 02:41:52 PM 39.1500 -76.6667 201° Southwest 399 459 10,000  Level Potomac TRACON
Tue 02:42:58 PM 39.1000 -76.7500 232° Southwest 241 277 10,000 -300 Level Potomac TRACON
Tue 02:43:52 PM 39.0500 -76.8000 218° Southwest 245 282 9,400 -1,105 Descending Potomac TRACON
Tue 02:44:52 PM 39.0000 -76.8667 226° Southwest 250 288 7,900 -1,500 Descending Potomac TRACON
Tue 02:45:52 PM 38.9500 -76.9167 218° Southwest 245 282 6,400 -950 Descending Potomac TRACON
Tue 02:46:52 PM 38.9000 -76.9333 195° South 196 226 6,000 -200 Descending Potomac TRACON
Tue 02:47:52 PM 38.8500 -76.9500 195° South 182 209 6,000  Level Potomac TRACON
Tue 02:48:47 PM 38.8000 -76.9500 180° South 181 208 6,000 -330 Level Potomac TRACON
Tue 02:49:41 PM 38.7667 -76.9500 180° South 177 204 5,400 -895 Descending Potomac TRACON
Tue 02:50:41 PM 38.7167 -76.9333 165° South 159 183 4,300 -1,392 Descending Potomac TRACON
Tue 02:51:46 PM 38.6667 -76.9667 208° Southwest 217 250 2,500 -1,150 Descending Potomac TRACON
Tue 02:52:41 PM 38.7000 -77.0167 311° West 205 236 2,000 -470 Descending Potomac TRACON
Tue 02:53:41 PM 38.7500 -77.0333 345° North 157 181 1,600 -350 Descending Potomac TRACON
Tue 02:54:41 PM 38.7833 -77.0333 360° North 144 166 1,300 -550 Descending Potomac TRACON
Tue 02:55:41 PM 38.8167 -77.0333 360° North 138 159 500 -800 Descending Potomac TRACON

Login

Don't have an account? Register now (free) for customized features, flight alerts, and more!